createdAt,value
2018-04-07T00:01:30.514Z,1016
2018-04-07T00:06:57.377Z,1016
2018-04-07T00:12:24.311Z,1016
2018-04-07T00:17:51.307Z,1016
2018-04-07T00:23:18.300Z,1016
2018-04-07T00:28:46.288Z,1016
2018-04-07T00:34:13.316Z,1016
2018-04-07T00:39:41.446Z,1016
2018-04-07T00:45:08.279Z,1016
2018-04-07T00:50:36.306Z,1016
2018-04-07T00:56:04.278Z,1016
2018-04-07T01:01:32.274Z,1016
2018-04-07T01:07:00.279Z,1016
2018-04-07T01:12:28.290Z,1016
2018-04-07T01:17:56.279Z,1016
2018-04-07T01:23:23.227Z,1016
2018-04-07T01:28:50.204Z,1016
2018-04-07T01:34:17.254Z,1016
2018-04-07T01:45:12.191Z,1016
2018-04-07T01:50:39.283Z,1016
2018-04-07T01:56:07.291Z,1015
2018-04-07T02:01:34.368Z,1015
2018-04-07T02:07:01.241Z,1016
2018-04-07T02:12:28.237Z,1015
2018-04-07T02:17:55.556Z,1016
2018-04-07T02:23:23.361Z,1016
2018-04-07T02:28:50.311Z,1015
2018-04-07T02:34:17.342Z,1015
2018-04-07T02:39:45.512Z,1015
2018-04-07T02:45:12.317Z,1015
2018-04-07T02:50:39.357Z,1015
2018-04-07T02:56:06.336Z,1015
2018-04-07T03:01:34.389Z,1015
2018-04-07T03:07:01.358Z,1015
2018-04-07T03:12:29.335Z,1015
2018-04-07T03:17:57.377Z,1015
2018-04-07T03:23:24.363Z,1015
2018-04-07T03:28:52.336Z,1014
2018-04-07T03:34:19.334Z,1014
2018-04-07T03:39:47.319Z,1014
2018-04-07T03:45:15.319Z,1014
2018-04-07T03:50:43.376Z,1014
2018-04-07T03:56:11.335Z,1014
2018-04-07T04:01:39.279Z,1014
2018-04-07T04:07:06.280Z,1014
2018-04-07T04:12:33.264Z,1014
2018-04-07T04:18:01.291Z,1014
2018-04-07T04:23:29.243Z,1014
2018-04-07T04:28:56.241Z,1014
2018-04-07T04:34:23.234Z,1014
2018-04-07T04:39:50.213Z,1014
2018-04-07T04:45:18.373Z,1014
2018-04-07T04:50:45.183Z,1014
2018-04-07T04:56:13.304Z,1013
2018-04-07T05:01:41.203Z,1014
2018-04-07T05:07:09.198Z,1013
2018-04-07T05:12:37.222Z,1013
2018-04-07T05:18:04.240Z,1013
2018-04-07T05:23:31.178Z,1013
2018-04-07T05:28:59.185Z,1013
2018-04-07T05:34:26.155Z,1013
2018-04-07T05:39:54.246Z,1013
2018-04-07T05:45:21.264Z,1013
2018-04-07T05:50:49.245Z,1013
2018-04-07T05:56:16.291Z,1013
2018-04-07T06:01:44.261Z,1013
2018-04-07T06:07:11.343Z,1013
2018-04-07T06:12:38.352Z,1013
2018-04-07T06:18:06.402Z,1013
2018-04-07T06:23:34.521Z,1013
2018-04-07T06:29:02.571Z,1013
2018-04-07T06:34:30.675Z,1013
2018-04-07T06:39:58.812Z,1013
2018-04-07T06:45:26.951Z,1013
2018-04-07T06:50:54.122Z,1013
2018-04-07T06:56:22.238Z,1013
2018-04-07T07:01:50.434Z,1013
2018-04-07T07:07:17.525Z,1013
2018-04-07T07:12:44.669Z,1013
2018-04-07T07:18:12.847Z,1013
2018-04-07T07:23:41.100Z,1013
2018-04-07T07:29:09.350Z,1013
2018-04-07T07:34:36.500Z,1012
2018-04-07T07:40:03.710Z,1012
2018-04-07T07:45:30.964Z,1012
2018-04-07T07:50:59.302Z,1012
2018-04-07T07:56:27.486Z,1012
2018-04-07T08:01:54.758Z,1012
2018-04-07T08:07:22.096Z,1012
2018-04-07T08:12:49.419Z,1012
2018-04-07T08:18:16.785Z,1012
2018-04-07T08:23:44.135Z,1012
2018-04-07T08:29:12.526Z,1012
2018-04-07T08:34:40.946Z,1012
2018-04-07T08:40:08.371Z,1012
2018-04-07T08:45:36.845Z,1012
2018-04-07T08:51:05.377Z,1012
2018-04-07T09:02:01.560Z,1012
2018-04-07T09:07:28.853Z,1012
2018-04-07T09:12:57.424Z,1012
2018-04-07T09:18:24.954Z,1011
2018-04-07T09:23:52.488Z,1011
2018-04-07T09:29:21.071Z,1011
2018-04-07T09:34:49.717Z,1011
2018-04-07T09:40:17.365Z,1011
2018-04-07T09:45:44.949Z,1011
2018-04-07T09:51:12.596Z,1011
2018-04-07T09:56:40.271Z,1011
2018-04-07T10:02:09.017Z,1011
2018-04-07T10:07:36.679Z,1011
2018-04-07T10:13:04.449Z,1011
2018-04-07T10:18:33.174Z,1011
2018-04-07T10:24:02.004Z,1011
2018-04-07T10:29:30.684Z,1011
2018-04-07T10:34:58.491Z,1011
2018-04-07T10:40:26.283Z,1011
2018-04-07T10:45:54.103Z,1011
2018-04-07T10:51:23.093Z,1011
2018-04-07T10:56:51.804Z,1011
2018-04-07T11:02:20.659Z,1011
2018-04-07T11:07:48.530Z,1010
2018-04-07T11:13:16.420Z,1010
2018-04-07T11:18:45.342Z,1010
2018-04-07T11:24:13.283Z,1010
2018-04-07T11:29:41.155Z,1010
2018-04-07T11:35:09.180Z,1010
2018-04-07T11:40:37.216Z,1010
2018-04-07T11:46:06.193Z,1010
2018-04-07T11:51:34.202Z,1010
2018-04-07T11:57:02.204Z,1011
2018-04-07T12:02:30.632Z,1011
2018-04-07T12:07:59.380Z,1011
2018-04-07T12:13:27.618Z,1011
2018-04-07T12:18:55.921Z,1011
2018-04-07T12:24:25.246Z,1010
2018-04-07T12:29:54.682Z,1011
2018-04-07T12:35:24.294Z,1010
2018-04-07T12:40:53.583Z,1010
2018-04-07T12:46:23.083Z,1010
2018-04-07T12:51:52.687Z,1010
2018-04-07T12:57:21.288Z,1010
2018-04-07T13:02:49.921Z,1010
2018-04-07T13:08:18.689Z,1010
2018-04-07T13:13:48.488Z,1010
2018-04-07T13:19:16.839Z,1010
2018-04-07T13:24:45.583Z,1010
2018-04-07T13:30:15.362Z,1010
2018-04-07T13:35:45.114Z,1010
2018-04-07T13:41:13.997Z,1010
2018-04-07T13:46:43.906Z,1010
2018-04-07T13:52:13.832Z,1010
2018-04-07T13:57:43.765Z,1010
2018-04-07T14:03:13.761Z,1010
2018-04-07T14:08:42.769Z,1010
2018-04-07T14:14:11.712Z,1009
2018-04-07T14:19:41.820Z,1009
2018-04-07T14:25:10.784Z,1009
2018-04-07T14:30:40.791Z,1009
2018-04-07T14:36:10.761Z,1009
2018-04-07T14:41:40.850Z,1009
2018-04-07T14:47:10.798Z,1009
2018-04-07T14:52:40.753Z,1009
2018-04-07T14:58:10.658Z,1009
2018-04-07T15:03:39.483Z,1009
2018-04-07T15:09:09.179Z,1009
2018-04-07T15:14:38.887Z,1009
2018-04-07T15:20:07.505Z,1009
2018-04-07T15:25:37.104Z,1009
2018-04-07T15:31:05.676Z,1009
2018-04-07T15:36:35.179Z,1009
2018-04-07T15:47:33.095Z,1009
2018-04-07T15:53:02.504Z,1009
2018-04-07T15:58:31.849Z,1009
2018-04-07T16:04:01.333Z,1009
2018-04-07T16:09:30.588Z,1009
2018-04-07T16:20:29.573Z,1009
2018-04-07T16:25:58.055Z,1009
2018-04-07T16:31:26.433Z,1009
2018-04-07T16:36:55.827Z,1008
2018-04-07T16:42:25.206Z,1009
2018-04-07T16:47:53.455Z,1008
2018-04-07T16:53:22.660Z,1008
2018-04-07T16:58:51.857Z,1008
2018-04-07T17:04:21.049Z,1008
2018-04-07T17:09:49.221Z,1008
2018-04-07T17:15:17.292Z,1008
2018-04-07T17:20:45.337Z,1008
2018-04-07T17:26:14.377Z,1008
2018-04-07T17:31:42.363Z,1008
2018-04-07T17:37:11.371Z,1008
2018-04-07T17:42:40.315Z,1008
2018-04-07T17:48:09.343Z,1008
2018-04-07T17:53:37.235Z,1008
2018-04-07T17:59:05.074Z,1008
2018-04-07T18:04:33.099Z,1008
2018-04-07T18:10:01.867Z,1008
2018-04-07T18:15:29.613Z,1008
2018-04-07T18:20:57.494Z,1008
2018-04-07T18:26:26.250Z,1008
2018-04-07T18:31:54.020Z,1008
2018-04-07T18:37:21.770Z,1008
2018-04-07T18:42:49.600Z,1008
2018-04-07T18:48:17.285Z,1008
2018-04-07T18:53:46.185Z,1008
2018-04-07T18:59:13.755Z,1008
2018-04-07T19:04:41.518Z,1008
2018-04-07T19:10:09.231Z,1008
2018-04-07T19:15:37.916Z,1008
2018-04-07T19:21:05.557Z,1009
2018-04-07T19:26:34.263Z,1009
2018-04-07T19:32:02.881Z,1009
2018-04-07T19:37:30.555Z,1009
2018-04-07T19:42:59.196Z,1009
2018-04-07T19:48:27.854Z,1009
2018-04-07T19:53:55.632Z,1008
2018-04-07T19:59:24.102Z,1008
2018-04-07T20:04:51.675Z,1008
2018-04-07T20:10:20.295Z,1008
2018-04-07T20:15:47.834Z,1008
2018-04-07T20:21:15.389Z,1008
2018-04-07T20:26:43.143Z,1008
2018-04-07T20:32:10.574Z,1008
2018-04-07T20:37:38.142Z,1008
2018-04-07T20:43:05.752Z,1008
2018-04-07T20:48:33.297Z,1008
2018-04-07T20:54:01.869Z,1008
2018-04-07T20:59:29.409Z,1008
2018-04-07T21:04:56.949Z,1008
2018-04-07T21:10:25.508Z,1008
2018-04-07T21:15:53.035Z,1008
2018-04-07T21:21:21.570Z,1008
2018-04-07T21:26:49.251Z,1008
2018-04-07T21:32:16.635Z,1008
2018-04-07T21:37:44.129Z,1008
2018-04-07T21:43:11.632Z,1008
2018-04-07T21:48:40.117Z,1008
2018-04-07T21:54:08.617Z,1008
2018-04-07T21:59:36.130Z,1008
2018-04-07T22:05:03.628Z,1008
2018-04-07T22:10:31.092Z,1008
2018-04-07T22:15:58.593Z,1008
2018-04-07T22:21:27.072Z,1008
2018-04-07T22:26:55.560Z,1008
2018-04-07T22:32:24.018Z,1008
2018-04-07T22:37:51.481Z,1008
2018-04-07T22:43:19.018Z,1008
2018-04-07T22:48:47.454Z,1008
2018-04-07T22:54:15.870Z,1008
2018-04-07T22:59:44.311Z,1008
2018-04-07T23:05:12.775Z,1008
2018-04-07T23:10:41.272Z,1008
2018-04-07T23:16:08.649Z,1008
2018-04-07T23:21:36.072Z,1008
2018-04-07T23:27:04.679Z,1008
2018-04-07T23:32:32.170Z,1008
2018-04-07T23:38:00.388Z,1008
2018-04-07T23:43:27.773Z,1008
2018-04-07T23:48:55.243Z,1008
2018-04-07T23:54:22.641Z,1007
